This is the latest recevied weather packets stored in our database for station/object K3HM. If no packets are shown the sender has not sent any weather packets the latest 10 day(s).
| Time | Temp. | Humidity | Pressure | Rain* | Wind** | Luminosity | Snow |
|---|---|---|---|---|---|---|---|
| 1777098719 | 13.33° C | 83% | 1010.1 hPa | 0 mm | - | 0 W/m² | - |
| 1777098415 | 13.33° C | 84% | 1010 hPa | 0 mm | - | 0 W/m² | - |
| 1777098113 | 13.33° C | 84% | 1010.1 hPa | 0 mm | - | 0 W/m² | - |
| 1777097808 | 12.78° C | 86% | 1010.2 hPa | 0 mm | - | 0 W/m² | - |
| 1777097506 | 12.78° C | 85% | 1010.3 hPa | 0 mm | - | 0 W/m² | - |
| 1777097203 | 12.78° C | 86% | 1010.4 hPa | 0 mm | - | 0 W/m² | - |
| 1777096899 | 12.22° C | 87% | 1010.4 hPa | 0 mm | - | 0 W/m² | - |
| 1777096599 | 12.22° C | 87% | 1010.3 hPa | 0 mm | - | 0 W/m² | - |
| 1777096294 | 12.78° C | 86% | 1010.8 hPa | 0 mm | - | 0 W/m² | - |
| 1777095994 | 12.22° C | 86% | 1010.7 hPa | 0 mm | - | 0 W/m² | - |
| 1777095691 | 12.78° C | 85% | 1011.1 hPa | 0 mm | - | 0 W/m² | - |
| 1777095387 | 12.78° C | 86% | 1010.8 hPa | 0 mm | - | 0 W/m² | - |
| 1777095084 | 13.33° C | 85% | 1011 hPa | 0 mm | - | 0 W/m² | - |
| 1777094779 | 13.89° C | 83% | 1010.7 hPa | 0 mm | - | 0 W/m² | - |
| 1777094475 | 12.78° C | 86% | 1011 hPa | 0 mm | - | 0 W/m² | - |
| 1777094174 | 12.78° C | 86% | 1011.1 hPa | 0 mm | - | 0 W/m² | - |
| 1777093868 | 13.33° C | 85% | 1011 hPa | 0 mm | - | 0 W/m² | - |
| 1777093564 | 13.33° C | 84% | 1011.3 hPa | 0 mm | - | 0 W/m² | - |
| 1777093262 | 13.33° C | 83% | 1011.2 hPa | 0 mm | - | 0 W/m² | - |
| 1777092961 | 13.89° C | 82% | 1011.2 hPa | 0 mm | - | 0 W/m² | - |
| 1777092656 | 13.89° C | 81% | 1011.1 hPa | 0 mm | - | 0 W/m² | - |
| 1777092352 | 13.33° C | 83% | 1011.1 hPa | 0 mm | - | 0 W/m² | - |
| 1777092049 | 13.33° C | 84% | 1011.3 hPa | 0 mm | - | 0 W/m² | - |
| 1777091743 | 14.44° C | 80% | 1011.1 hPa | 0 mm | - | 0 W/m² | - |
| 1777091440 | 13.89° C | 80% | 1011.2 hPa | 0 mm | - | 0 W/m² | - |
* Rain latest hour (hover to see other rain measurements)
** Current wind speed in m/s (hover to see current wind gust speed)